• Join FlightAware (Why Join?)
  • Login
  • US Flag 
06:55PM EDT


 

Airport Tracker/Info


-or-


 

Live Flight TrackerFlight Track Log ✈ KAP82 ✈ 25-Aug-2013 ✈ KBOS - KALB

Flight Track Log - Related Links

Times and Time Zones

All times are in EDT time to prevent confusion due to time zone crossing. See the KAP82 flight status page for this flight to view local times or setup timezone preferences in your user account.

Time Position Orientation Groundspeed Altitude Reporting Facility
EDT Latitude Longitude Course Direction KTS MPH feet Rate Location/Type
05:25PM 42.3667 -71.0167 216° Southwest 106 122 400  Level KA90
05:25PM 42.3500 -71.0333 216° Southwest 102 117 1,000 720 Climbing KA90
05:26PM 42.3500 -71.0667 270° West 102 117 1,600 600 Climbing KA90
05:27PM 42.3500 -71.1000 270° West 104 120 2,200 540 Climbing KA90
05:28PM 42.3500 -71.1500 270° West 106 122 2,700 540 Climbing KA90
05:30PM 42.3667 -71.1833 304° West 109 125 3,400 660 Climbing KA90
05:31PM 42.3667 -71.2333 270° West 114 131 4,100 600 Climbing KA90
05:32PM 42.3833 -71.2667 304° West 119 137 4,600 480 Climbing KA90
05:32PM 42.3833 -71.3167 270° West 124 143 5,100 480 Climbing KA90
05:33PM 42.4000 -71.3667 294° West 125 144 5,600 480 Climbing KA90
05:34PM 42.4000 -71.4000 270° West 126 145 6,100 360 Climbing KA90
05:36PM 42.4167 -71.4667 289° West 133 153 6,400 180 Climbing KA90
05:36PM 42.4167 -71.5000 270° West 141 162 6,500 60 Climbing KA90
05:38PM 42.4333 -71.5667 289° West 145 167 6,600  Climbing KA90
05:39PM 42.4333 -71.6167 270° West 140 161 6,600  Level KA90
05:39PM 42.4372 -71.6525 278° West 144 166 6,600 -120 Level Boston Center
05:40PM 42.4458 -71.6944 286° West 144 166 6,500  Descending Boston Center
05:41PM 42.4525 -71.7478 280° West 144 166 6,600  Climbing Boston Center
05:42PM 42.4611 -71.7983 283° West 144 166 6,600  Level Boston Center
05:43PM 42.4697 -71.8489 283° West 144 166 6,600  Level Boston Center
05:44PM 42.4761 -71.8997 280° West 144 166 6,600  Level Boston Center
05:45PM 42.4847 -71.9503 283° West 144 166 6,600  Level Boston Center
05:46PM 42.4933 -71.9981 284° West 144 166 6,600  Level Boston Center
05:47PM 42.4978 -72.0514 276° West 144 166 6,600  Level Boston Center
05:48PM 42.5061 -72.0994 283° West 144 166 6,600  Level Boston Center
05:49PM 42.5125 -72.1472 280° West 144 166 6,600  Level Boston Center
05:50PM 42.5211 -72.1978 283° West 144 166 6,600  Level Boston Center
05:51PM 42.5294 -72.2486 283° West 144 166 6,600  Level Boston Center
05:52PM 42.5378 -72.2936 284° West 144 166 6,600  Level Boston Center
05:53PM 42.5442 -72.3414 280° West 144 166 6,600  Level Boston Center
05:54PM 42.5525 -72.3922 283° West 144 166 6,600  Level Boston Center
05:55PM 42.5608 -72.4428 283° West 144 166 6,600  Level Boston Center
05:56PM 42.5672 -72.4964 279° West 144 166 6,600  Level Boston Center
05:57PM 42.5756 -72.5472 283° West 144 166 6,600  Level Boston Center
05:58PM 42.5817 -72.5981 279° West 144 166 6,600  Level Boston Center
05:59PM 42.5897 -72.6544 281° West 139 160 6,600  Level Boston Center
06:00PM 42.5961 -72.7053 280° West 139 160 6,600  Level Boston Center
06:01PM 42.6000 -72.7419 278° West 140 161 6,600  Level Boston Center
06:02PM 42.6083 -72.8011 281° West 139 160 6,600  Level Boston Center
06:03PM 42.6183 -72.8547 284° West 137 158 6,600  Level Boston Center
06:04PM 42.6225 -72.8914 279° West 136 157 6,600  Level Boston Center
06:05PM 42.6264 -72.9394 276° West 136 157 6,600  Level Boston Center
06:06PM 42.6386 -73.0017 285° West 137 158 6,600  Level Boston Center
06:07PM 42.6447 -73.0497 280° West 135 155 6,600  Level Boston Center
06:08PM 42.6506 -73.1006 279° West 136 157 6,600 -240 Level Boston Center
06:09PM 42.6608 -73.1544 285° West 146 168 6,200 -420 Descending Boston Center
06:10PM 42.6667 -73.2108 278° West 159 183 5,800 -420 Descending Boston Center
06:11PM 42.6744 -73.2703 280° West 159 183 5,400 -420 Descending Boston Center
06:12PM 42.6867 -73.3383 284° West 160 184 5,000 -360 Descending Boston Center
06:13PM 42.6922 -73.3950 278° West 162 186 4,700 -360 Descending Boston Center
06:14PM 42.7022 -73.4544 283° West 163 188 4,300 -420 Descending Boston Center
06:15PM 42.7225 -73.5142 295° West 167 192 3,900 -420 Descending Boston Center
06:16PM 42.7408 -73.5708 294° West 168 193 3,500 -480 Descending Boston Center
06:17PM 42.7714 -73.6253 307° West 162 186 3,000 -420 Descending Boston Center
06:18PM 42.8000 -73.6711 310° West 153 176 2,700 -240 Descending Boston Center
06:19PM 42.8247 -73.7028 317° Northwest 143 165 2,600 -180 Descending Boston Center
06:20PM 42.8536 -73.7458 312° West 139 160 2,400 -240 Descending Boston Center
06:21PM 42.8614 -73.7939 282° West 141 162 2,100 -300 Descending Boston Center
06:22PM 42.8319 -73.8133 206° Southwest 131 151 1,900 -540 Descending Boston Center
06:23PM 42.7944 -73.8094 176° South 119 137 1,100 -720 Descending Boston Center
06:24PM 42.7653 -73.8061 175° South 97 112 500 -600 Descending Boston Center
06:26PM 42.7491 -73.8020 180° South  Level Estimated
06:33PM 42.7491 -73.8020 180° South  Level Estimated
06:34PM 42.7491 -73.8020 180° South  Level Estimated
06:35PM 42.7491 -73.8020 180° South  Level Estimated